sensor_id;sensor_type;location;lat;lon;timestamp;P1;durP1;ratioP1;P2;durP2;ratioP2
27225;SDS011;14732;51.074;3.788;2024-01-15T00:01:28;5.30;;;2.78;;
27225;SDS011;14732;51.074;3.788;2024-01-15T00:03:54;7.00;;;2.35;;
27225;SDS011;14732;51.074;3.788;2024-01-15T00:06:20;5.22;;;2.15;;
27225;SDS011;14732;51.074;3.788;2024-01-15T00:08:45;3.83;;;2.30;;
27225;SDS011;14732;51.074;3.788;2024-01-15T00:11:11;8.15;;;2.78;;
27225;SDS011;14732;51.074;3.788;2024-01-15T00:13:37;5.28;;;2.72;;
27225;SDS011;14732;51.074;3.788;2024-01-15T00:16:04;7.60;;;3.30;;
27225;SDS011;14732;51.074;3.788;2024-01-15T00:18:30;8.55;;;3.60;;
27225;SDS011;14732;51.074;3.788;2024-01-15T00:20:56;9.07;;;3.33;;
27225;SDS011;14732;51.074;3.788;2024-01-15T00:23:22;11.52;;;3.50;;
27225;SDS011;14732;51.074;3.788;2024-01-15T00:25:48;9.35;;;3.50;;
27225;SDS011;14732;51.074;3.788;2024-01-15T00:28:13;8.15;;;3.10;;
27225;SDS011;14732;51.074;3.788;2024-01-15T00:30:39;10.45;;;3.28;;
27225;SDS011;14732;51.074;3.788;2024-01-15T00:33:04;10.38;;;3.13;;
27225;SDS011;14732;51.074;3.788;2024-01-15T00:35:30;9.55;;;3.28;;
27225;SDS011;14732;51.074;3.788;2024-01-15T00:37:56;7.80;;;3.15;;
27225;SDS011;14732;51.074;3.788;2024-01-15T00:40:21;8.45;;;3.47;;
27225;SDS011;14732;51.074;3.788;2024-01-15T00:42:47;7.15;;;2.70;;
27225;SDS011;14732;51.074;3.788;2024-01-15T00:45:13;10.38;;;3.00;;
27225;SDS011;14732;51.074;3.788;2024-01-15T00:47:38;8.18;;;2.50;;
27225;SDS011;14732;51.074;3.788;2024-01-15T00:50:04;6.30;;;2.50;;
27225;SDS011;14732;51.074;3.788;2024-01-15T00:52:30;7.45;;;2.40;;
27225;SDS011;14732;51.074;3.788;2024-01-15T00:54:56;6.30;;;1.85;;
27225;SDS011;14732;51.074;3.788;2024-01-15T00:57:22;7.75;;;2.13;;
27225;SDS011;14732;51.074;3.788;2024-01-15T00:59:47;5.40;;;1.92;;
27225;SDS011;14732;51.074;3.788;2024-01-15T01:02:13;7.03;;;1.92;;
27225;SDS011;14732;51.074;3.788;2024-01-15T01:04:40;3.80;;;1.90;;
27225;SDS011;14732;51.074;3.788;2024-01-15T01:07:05;5.25;;;1.95;;
27225;SDS011;14732;51.074;3.788;2024-01-15T01:09:31;5.03;;;1.75;;
27225;SDS011;14732;51.074;3.788;2024-01-15T01:11:57;7.53;;;2.58;;
27225;SDS011;14732;51.074;3.788;2024-01-15T01:14:22;6.07;;;2.10;;
27225;SDS011;14732;51.074;3.788;2024-01-15T01:16:48;7.88;;;2.35;;
27225;SDS011;14732;51.074;3.788;2024-01-15T01:19:14;4.50;;;2.30;;
27225;SDS011;14732;51.074;3.788;2024-01-15T01:21:40;9.40;;;2.28;;
27225;SDS011;14732;51.074;3.788;2024-01-15T01:24:06;3.92;;;2.20;;
27225;SDS011;14732;51.074;3.788;2024-01-15T01:26:31;5.28;;;2.50;;
27225;SDS011;14732;51.074;3.788;2024-01-15T01:28:57;6.20;;;2.40;;
27225;SDS011;14732;51.074;3.788;2024-01-15T01:31:23;8.02;;;2.15;;
27225;SDS011;14732;51.074;3.788;2024-01-15T01:33:49;6.70;;;2.17;;
27225;SDS011;14732;51.074;3.788;2024-01-15T01:36:14;7.35;;;2.53;;
27225;SDS011;14732;51.074;3.788;2024-01-15T01:38:40;6.35;;;2.60;;
27225;SDS011;14732;51.074;3.788;2024-01-15T01:41:06;6.90;;;2.33;;
27225;SDS011;14732;51.074;3.788;2024-01-15T01:43:32;5.60;;;2.00;;
27225;SDS011;14732;51.074;3.788;2024-01-15T01:45:58;6.85;;;2.40;;
27225;SDS011;14732;51.074;3.788;2024-01-15T01:48:25;9.25;;;2.42;;
27225;SDS011;14732;51.074;3.788;2024-01-15T01:50:57;5.10;;;2.40;;
27225;SDS011;14732;51.074;3.788;2024-01-15T01:53:25;8.45;;;2.53;;
27225;SDS011;14732;51.074;3.788;2024-01-15T01:55:52;9.30;;;2.55;;
27225;SDS011;14732;51.074;3.788;2024-01-15T01:58:19;8.63;;;2.30;;
27225;SDS011;14732;51.074;3.788;2024-01-15T02:00:46;5.60;;;2.30;;
27225;SDS011;14732;51.074;3.788;2024-01-15T02:03:12;5.55;;;2.05;;
27225;SDS011;14732;51.074;3.788;2024-01-15T02:05:39;2.88;;;2.35;;
27225;SDS011;14732;51.074;3.788;2024-01-15T02:08:05;4.75;;;2.30;;
27225;SDS011;14732;51.074;3.788;2024-01-15T02:10:31;8.60;;;2.80;;
27225;SDS011;14732;51.074;3.788;2024-01-15T02:12:57;5.40;;;2.20;;
27225;SDS011;14732;51.074;3.788;2024-01-15T02:15:23;5.38;;;2.33;;
27225;SDS011;14732;51.074;3.788;2024-01-15T02:17:59;4.65;;;2.28;;
27225;SDS011;14732;51.074;3.788;2024-01-15T02:20:26;4.05;;;2.30;;
27225;SDS011;14732;51.074;3.788;2024-01-15T02:22:51;5.90;;;2.35;;
27225;SDS011;14732;51.074;3.788;2024-01-15T02:25:17;8.93;;;2.55;;
27225;SDS011;14732;51.074;3.788;2024-01-15T02:27:44;4.88;;;2.17;;
27225;SDS011;14732;51.074;3.788;2024-01-15T02:30:11;5.03;;;2.15;;
27225;SDS011;14732;51.074;3.788;2024-01-15T02:32:38;4.68;;;2.15;;
27225;SDS011;14732;51.074;3.788;2024-01-15T02:35:04;5.75;;;2.08;;
27225;SDS011;14732;51.074;3.788;2024-01-15T02:37:30;6.20;;;2.00;;
27225;SDS011;14732;51.074;3.788;2024-01-15T02:39:55;5.65;;;1.85;;
27225;SDS011;14732;51.074;3.788;2024-01-15T02:42:21;5.53;;;2.67;;
27225;SDS011;14732;51.074;3.788;2024-01-15T02:44:47;6.57;;;2.60;;
27225;SDS011;14732;51.074;3.788;2024-01-15T02:47:13;6.93;;;2.45;;
27225;SDS011;14732;51.074;3.788;2024-01-15T02:49:39;4.30;;;2.10;;
27225;SDS011;14732;51.074;3.788;2024-01-15T02:52:05;8.48;;;2.53;;
27225;SDS011;14732;51.074;3.788;2024-01-15T02:54:31;4.47;;;2.28;;
27225;SDS011;14732;51.074;3.788;2024-01-15T02:56:57;7.22;;;2.10;;
27225;SDS011;14732;51.074;3.788;2024-01-15T02:59:22;6.75;;;2.28;;
27225;SDS011;14732;51.074;3.788;2024-01-15T03:01:48;9.00;;;2.30;;
27225;SDS011;14732;51.074;3.788;2024-01-15T03:04:13;9.02;;;2.50;;
27225;SDS011;14732;51.074;3.788;2024-01-15T03:06:39;5.57;;;2.03;;
27225;SDS011;14732;51.074;3.788;2024-01-15T03:09:05;8.30;;;2.17;;
27225;SDS011;14732;51.074;3.788;2024-01-15T03:11:36;8.70;;;2.00;;
27225;SDS011;14732;51.074;3.788;2024-01-15T03:14:05;7.38;;;2.28;;
27225;SDS011;14732;51.074;3.788;2024-01-15T03:16:31;9.52;;;2.30;;
27225;SDS011;14732;51.074;3.788;2024-01-15T03:18:57;8.35;;;2.08;;
27225;SDS011;14732;51.074;3.788;2024-01-15T03:21:22;6.82;;;2.22;;
27225;SDS011;14732;51.074;3.788;2024-01-15T03:23:48;9.73;;;2.60;;
27225;SDS011;14732;51.074;3.788;2024-01-15T03:26:14;10.45;;;2.30;;
27225;SDS011;14732;51.074;3.788;2024-01-15T03:28:40;5.13;;;2.10;;
27225;SDS011;14732;51.074;3.788;2024-01-15T03:31:06;5.03;;;2.08;;
27225;SDS011;14732;51.074;3.788;2024-01-15T03:33:32;13.25;;;2.10;;
27225;SDS011;14732;51.074;3.788;2024-01-15T03:35:58;8.30;;;2.20;;
27225;SDS011;14732;51.074;3.788;2024-01-15T03:38:24;6.60;;;2.15;;
27225;SDS011;14732;51.074;3.788;2024-01-15T03:40:52;6.35;;;1.77;;
27225;SDS011;14732;51.074;3.788;2024-01-15T03:43:18;4.72;;;1.98;;
27225;SDS011;14732;51.074;3.788;2024-01-15T03:45:43;7.53;;;2.00;;
27225;SDS011;14732;51.074;3.788;2024-01-15T03:48:09;4.05;;;1.88;;
27225;SDS011;14732;51.074;3.788;2024-01-15T03:50:35;5.43;;;1.85;;
27225;SDS011;14732;51.074;3.788;2024-01-15T03:53:00;14.20;;;2.22;;
27225;SDS011;14732;51.074;3.788;2024-01-15T03:55:26;5.38;;;1.83;;
27225;SDS011;14732;51.074;3.788;2024-01-15T03:57:51;6.40;;;1.60;;
27225;SDS011;14732;51.074;3.788;2024-01-15T04:00:17;4.82;;;1.67;;
27225;SDS011;14732;51.074;3.788;2024-01-15T04:02:43;5.25;;;1.52;;
27225;SDS011;14732;51.074;3.788;2024-01-15T04:05:09;7.45;;;1.50;;
27225;SDS011;14732;51.074;3.788;2024-01-15T04:07:35;7.13;;;1.48;;
27225;SDS011;14732;51.074;3.788;2024-01-15T04:10:01;5.55;;;1.50;;
27225;SDS011;14732;51.074;3.788;2024-01-15T04:12:27;8.10;;;1.48;;
27225;SDS011;14732;51.074;3.788;2024-01-15T04:14:53;4.22;;;1.10;;
27225;SDS011;14732;51.074;3.788;2024-01-15T04:17:19;6.70;;;1.38;;
27225;SDS011;14732;51.074;3.788;2024-01-15T04:19:46;7.45;;;1.20;;
27225;SDS011;14732;51.074;3.788;2024-01-15T04:22:13;8.35;;;1.40;;
27225;SDS011;14732;51.074;3.788;2024-01-15T04:24:39;8.13;;;1.33;;
27225;SDS011;14732;51.074;3.788;2024-01-15T04:27:05;5.25;;;1.38;;
27225;SDS011;14732;51.074;3.788;2024-01-15T04:29:31;3.35;;;1.00;;
27225;SDS011;14732;51.074;3.788;2024-01-15T04:31:56;8.43;;;1.85;;
27225;SDS011;14732;51.074;3.788;2024-01-15T04:34:22;3.88;;;1.08;;
27225;SDS011;14732;51.074;3.788;2024-01-15T04:36:48;4.28;;;1.00;;
27225;SDS011;14732;51.074;3.788;2024-01-15T04:39:13;5.72;;;1.20;;
27225;SDS011;14732;51.074;3.788;2024-01-15T04:41:39;6.30;;;1.23;;
27225;SDS011;14732;51.074;3.788;2024-01-15T04:44:05;7.68;;;1.23;;
27225;SDS011;14732;51.074;3.788;2024-01-15T04:46:30;5.22;;;1.20;;
27225;SDS011;14732;51.074;3.788;2024-01-15T04:48:56;7.78;;;1.30;;
27225;SDS011;14732;51.074;3.788;2024-01-15T04:51:22;9.50;;;1.30;;
27225;SDS011;14732;51.074;3.788;2024-01-15T04:53:47;4.18;;;1.20;;
27225;SDS011;14732;51.074;3.788;2024-01-15T04:56:13;4.35;;;1.33;;
27225;SDS011;14732;51.074;3.788;2024-01-15T04:58:39;6.72;;;1.45;;
27225;SDS011;14732;51.074;3.788;2024-01-15T05:01:04;4.30;;;1.42;;
27225;SDS011;14732;51.074;3.788;2024-01-15T05:03:30;5.60;;;1.30;;
27225;SDS011;14732;51.074;3.788;2024-01-15T05:05:55;6.43;;;1.27;;
27225;SDS011;14732;51.074;3.788;2024-01-15T05:08:21;3.65;;;1.10;;
27225;SDS011;14732;51.074;3.788;2024-01-15T05:10:47;6.50;;;1.40;;
27225;SDS011;14732;51.074;3.788;2024-01-15T05:13:13;6.63;;;1.42;;
27225;SDS011;14732;51.074;3.788;2024-01-15T05:15:39;6.95;;;1.73;;
27225;SDS011;14732;51.074;3.788;2024-01-15T05:18:04;6.03;;;1.33;;
27225;SDS011;14732;51.074;3.788;2024-01-15T05:20:31;9.10;;;1.58;;
27225;SDS011;14732;51.074;3.788;2024-01-15T05:22:56;4.75;;;1.33;;
27225;SDS011;14732;51.074;3.788;2024-01-15T05:25:22;4.07;;;1.45;;
27225;SDS011;14732;51.074;3.788;2024-01-15T05:27:48;6.13;;;1.45;;
27225;SDS011;14732;51.074;3.788;2024-01-15T05:30:13;6.07;;;1.90;;
27225;SDS011;14732;51.074;3.788;2024-01-15T05:32:39;6.28;;;1.50;;
27225;SDS011;14732;51.074;3.788;2024-01-15T05:35:05;7.75;;;1.55;;
27225;SDS011;14732;51.074;3.788;2024-01-15T05:37:31;5.30;;;1.50;;
27225;SDS011;14732;51.074;3.788;2024-01-15T05:39:57;6.60;;;1.70;;
27225;SDS011;14732;51.074;3.788;2024-01-15T05:42:22;7.60;;;1.70;;
27225;SDS011;14732;51.074;3.788;2024-01-15T05:44:48;8.60;;;1.45;;
27225;SDS011;14732;51.074;3.788;2024-01-15T05:47:14;9.02;;;1.95;;
27225;SDS011;14732;51.074;3.788;2024-01-15T05:49:39;9.10;;;2.00;;
27225;SDS011;14732;51.074;3.788;2024-01-15T05:52:05;10.80;;;2.00;;
27225;SDS011;14732;51.074;3.788;2024-01-15T05:54:31;8.23;;;2.10;;
27225;SDS011;14732;51.074;3.788;2024-01-15T05:56:57;9.63;;;1.80;;
27225;SDS011;14732;51.074;3.788;2024-01-15T05:59:22;5.38;;;1.40;;
27225;SDS011;14732;51.074;3.788;2024-01-15T06:01:48;8.27;;;1.92;;
27225;SDS011;14732;51.074;3.788;2024-01-15T06:04:14;7.22;;;1.23;;
27225;SDS011;14732;51.074;3.788;2024-01-15T06:06:39;13.25;;;1.95;;
27225;SDS011;14732;51.074;3.788;2024-01-15T06:09:05;6.82;;;1.65;;
27225;SDS011;14732;51.074;3.788;2024-01-15T06:11:31;7.00;;;1.67;;
27225;SDS011;14732;51.074;3.788;2024-01-15T06:13:57;17.60;;;1.95;;
27225;SDS011;14732;51.074;3.788;2024-01-15T06:16:23;13.02;;;1.60;;
27225;SDS011;14732;51.074;3.788;2024-01-15T06:18:49;4.93;;;1.58;;
27225;SDS011;14732;51.074;3.788;2024-01-15T06:21:15;8.35;;;1.60;;
27225;SDS011;14732;51.074;3.788;2024-01-15T06:23:41;8.63;;;1.58;;
27225;SDS011;14732;51.074;3.788;2024-01-15T06:26:07;11.63;;;1.50;;
27225;SDS011;14732;51.074;3.788;2024-01-15T06:28:33;3.65;;;1.88;;
27225;SDS011;14732;51.074;3.788;2024-01-15T06:30:58;6.65;;;2.10;;
27225;SDS011;14732;51.074;3.788;2024-01-15T06:33:24;10.50;;;1.30;;
27225;SDS011;14732;51.074;3.788;2024-01-15T06:35:50;12.00;;;1.55;;
27225;SDS011;14732;51.074;3.788;2024-01-15T06:38:16;7.97;;;1.90;;
27225;SDS011;14732;51.074;3.788;2024-01-15T06:40:41;11.25;;;1.60;;
27225;SDS011;14732;51.074;3.788;2024-01-15T06:43:14;6.20;;;1.43;;
27225;SDS011;14732;51.074;3.788;2024-01-15T06:45:45;8.10;;;1.67;;
27225;SDS011;14732;51.074;3.788;2024-01-15T06:48:11;6.63;;;1.33;;
27225;SDS011;14732;51.074;3.788;2024-01-15T06:50:41;13.43;;;2.00;;
27225;SDS011;14732;51.074;3.788;2024-01-15T06:53:07;11.73;;;1.92;;
27225;SDS011;14732;51.074;3.788;2024-01-15T06:55:33;11.38;;;2.42;;
27225;SDS011;14732;51.074;3.788;2024-01-15T06:57:59;8.77;;;2.05;;
27225;SDS011;14732;51.074;3.788;2024-01-15T07:00:25;8.68;;;2.95;;
27225;SDS011;14732;51.074;3.788;2024-01-15T07:02:50;9.90;;;2.85;;
27225;SDS011;14732;51.074;3.788;2024-01-15T07:05:17;19.73;;;3.72;;
27225;SDS011;14732;51.074;3.788;2024-01-15T07:07:42;17.77;;;4.50;;
27225;SDS011;14732;51.074;3.788;2024-01-15T07:10:08;19.98;;;4.60;;
27225;SDS011;14732;51.074;3.788;2024-01-15T07:12:35;14.02;;;5.13;;
27225;SDS011;14732;51.074;3.788;2024-01-15T07:15:00;26.17;;;5.60;;
27225;SDS011;14732;51.074;3.788;2024-01-15T07:17:27;23.65;;;5.75;;
27225;SDS011;14732;51.074;3.788;2024-01-15T07:19:52;17.55;;;3.65;;
27225;SDS011;14732;51.074;3.788;2024-01-15T07:22:18;16.58;;;3.28;;
27225;SDS011;14732;51.074;3.788;2024-01-15T07:24:44;11.25;;;2.70;;
27225;SDS011;14732;51.074;3.788;2024-01-15T07:27:10;14.48;;;3.05;;
27225;SDS011;14732;51.074;3.788;2024-01-15T07:29:36;10.35;;;3.20;;
27225;SDS011;14732;51.074;3.788;2024-01-15T07:32:02;11.35;;;3.95;;
27225;SDS011;14732;51.074;3.788;2024-01-15T07:34:29;28.38;;;5.93;;
27225;SDS011;14732;51.074;3.788;2024-01-15T07:36:54;24.30;;;6.72;;
27225;SDS011;14732;51.074;3.788;2024-01-15T07:39:20;27.75;;;6.70;;
27225;SDS011;14732;51.074;3.788;2024-01-15T07:41:47;19.75;;;4.70;;
27225;SDS011;14732;51.074;3.788;2024-01-15T07:44:13;13.35;;;2.10;;
27225;SDS011;14732;51.074;3.788;2024-01-15T07:46:39;7.80;;;1.27;;
27225;SDS011;14732;51.074;3.788;2024-01-15T07:49:10;8.15;;;1.55;;
27225;SDS011;14732;51.074;3.788;2024-01-15T07:51:35;4.53;;;1.15;;
27225;SDS011;14732;51.074;3.788;2024-01-15T07:54:01;10.48;;;1.20;;
27225;SDS011;14732;51.074;3.788;2024-01-15T07:56:27;7.13;;;1.35;;
27225;SDS011;14732;51.074;3.788;2024-01-15T07:58:53;6.20;;;1.35;;
27225;SDS011;14732;51.074;3.788;2024-01-15T08:01:18;6.72;;;1.00;;
27225;SDS011;14732;51.074;3.788;2024-01-15T08:03:44;7.00;;;1.30;;
27225;SDS011;14732;51.074;3.788;2024-01-15T08:06:10;9.50;;;1.13;;
27225;SDS011;14732;51.074;3.788;2024-01-15T08:08:36;5.43;;;1.02;;
27225;SDS011;14732;51.074;3.788;2024-01-15T08:11:02;11.32;;;1.25;;
27225;SDS011;14732;51.074;3.788;2024-01-15T08:13:28;5.45;;;1.35;;
27225;SDS011;14732;51.074;3.788;2024-01-15T08:15:53;4.53;;;1.35;;
27225;SDS011;14732;51.074;3.788;2024-01-15T08:18:19;6.50;;;1.40;;
27225;SDS011;14732;51.074;3.788;2024-01-15T08:20:46;9.35;;;1.48;;
27225;SDS011;14732;51.074;3.788;2024-01-15T08:23:12;3.63;;;1.13;;
27225;SDS011;14732;51.074;3.788;2024-01-15T08:25:38;6.75;;;1.48;;
27225;SDS011;14732;51.074;3.788;2024-01-15T08:28:04;9.23;;;1.50;;
27225;SDS011;14732;51.074;3.788;2024-01-15T08:30:29;5.05;;;1.05;;
27225;SDS011;14732;51.074;3.788;2024-01-15T08:32:55;9.32;;;1.35;;
27225;SDS011;14732;51.074;3.788;2024-01-15T08:35:21;11.52;;;2.15;;
27225;SDS011;14732;51.074;3.788;2024-01-15T08:37:51;6.55;;;1.30;;
27225;SDS011;14732;51.074;3.788;2024-01-15T08:40:18;6.18;;;1.50;;
27225;SDS011;14732;51.074;3.788;2024-01-15T08:42:44;7.82;;;1.40;;
27225;SDS011;14732;51.074;3.788;2024-01-15T08:45:10;9.55;;;1.30;;
27225;SDS011;14732;51.074;3.788;2024-01-15T08:47:36;8.40;;;1.38;;
27225;SDS011;14732;51.074;3.788;2024-01-15T08:50:03;4.75;;;1.23;;
27225;SDS011;14732;51.074;3.788;2024-01-15T08:52:29;18.20;;;1.42;;
27225;SDS011;14732;51.074;3.788;2024-01-15T08:57:21;8.95;;;1.02;;
27225;SDS011;14732;51.074;3.788;2024-01-15T08:59:47;9.27;;;1.50;;
27225;SDS011;14732;51.074;3.788;2024-01-15T09:02:13;10.63;;;1.40;;
27225;SDS011;14732;51.074;3.788;2024-01-15T09:04:38;18.52;;;2.85;;
27225;SDS011;14732;51.074;3.788;2024-01-15T09:07:04;20.50;;;4.82;;
27225;SDS011;14732;51.074;3.788;2024-01-15T09:09:30;15.43;;;3.83;;
27225;SDS011;14732;51.074;3.788;2024-01-15T09:11:55;15.35;;;5.25;;
27225;SDS011;14732;51.074;3.788;2024-01-15T09:14:21;18.10;;;5.03;;
27225;SDS011;14732;51.074;3.788;2024-01-15T09:16:49;16.70;;;4.22;;
27225;SDS011;14732;51.074;3.788;2024-01-15T09:19:15;9.40;;;3.25;;
27225;SDS011;14732;51.074;3.788;2024-01-15T09:21:41;10.57;;;3.13;;
27225;SDS011;14732;51.074;3.788;2024-01-15T09:24:07;13.23;;;3.00;;
27225;SDS011;14732;51.074;3.788;2024-01-15T09:26:32;17.48;;;4.20;;
27225;SDS011;14732;51.074;3.788;2024-01-15T09:28:58;17.30;;;4.20;;
27225;SDS011;14732;51.074;3.788;2024-01-15T09:31:24;12.85;;;3.63;;
27225;SDS011;14732;51.074;3.788;2024-01-15T09:33:49;12.25;;;3.03;;
27225;SDS011;14732;51.074;3.788;2024-01-15T09:36:21;10.00;;;1.98;;
27225;SDS011;14732;51.074;3.788;2024-01-15T09:38:47;13.73;;;2.20;;
27225;SDS011;14732;51.074;3.788;2024-01-15T09:41:13;8.13;;;2.22;;
27225;SDS011;14732;51.074;3.788;2024-01-15T09:43:40;7.18;;;1.52;;
27225;SDS011;14732;51.074;3.788;2024-01-15T09:46:05;4.35;;;0.90;;
27225;SDS011;14732;51.074;3.788;2024-01-15T09:48:31;7.65;;;1.10;;
27225;SDS011;14732;51.074;3.788;2024-01-15T09:50:59;8.23;;;1.35;;
27225;SDS011;14732;51.074;3.788;2024-01-15T09:53:27;4.72;;;1.10;;
27225;SDS011;14732;51.074;3.788;2024-01-15T09:55:52;8.18;;;1.13;;
27225;SDS011;14732;51.074;3.788;2024-01-15T09:58:18;3.72;;;0.95;;
27225;SDS011;14732;51.074;3.788;2024-01-15T10:00:46;8.98;;;1.30;;
27225;SDS011;14732;51.074;3.788;2024-01-15T10:05:40;8.00;;;1.13;;
27225;SDS011;14732;51.074;3.788;2024-01-15T10:08:06;8.80;;;1.48;;
27225;SDS011;14732;51.074;3.788;2024-01-15T10:10:32;6.25;;;1.33;;
27225;SDS011;14732;51.074;3.788;2024-01-15T10:12:58;7.15;;;1.15;;
27225;SDS011;14732;51.074;3.788;2024-01-15T10:15:28;5.47;;;1.00;;
27225;SDS011;14732;51.074;3.788;2024-01-15T10:17:54;5.47;;;1.20;;
27225;SDS011;14732;51.074;3.788;2024-01-15T10:20:19;7.38;;;1.38;;
27225;SDS011;14732;51.074;3.788;2024-01-15T10:22:49;8.65;;;1.25;;
27225;SDS011;14732;51.074;3.788;2024-01-15T10:25:15;7.60;;;1.00;;
27225;SDS011;14732;51.074;3.788;2024-01-15T10:27:47;7.70;;;1.27;;
27225;SDS011;14732;51.074;3.788;2024-01-15T10:30:28;7.43;;;0.90;;
27225;SDS011;14732;51.074;3.788;2024-01-15T10:32:58;7.93;;;1.33;;
27225;SDS011;14732;51.074;3.788;2024-01-15T10:35:26;6.13;;;1.13;;
27225;SDS011;14732;51.074;3.788;2024-01-15T10:37:53;5.18;;;0.90;;
27225;SDS011;14732;51.074;3.788;2024-01-15T10:40:19;6.18;;;1.27;;
27225;SDS011;14732;51.074;3.788;2024-01-15T10:42:45;9.90;;;1.38;;
27225;SDS011;14732;51.074;3.788;2024-01-15T10:45:12;7.45;;;1.25;;
27225;SDS011;14732;51.074;3.788;2024-01-15T10:47:42;6.13;;;1.30;;
27225;SDS011;14732;51.074;3.788;2024-01-15T10:50:08;3.42;;;0.80;;
27225;SDS011;14732;51.074;3.788;2024-01-15T10:52:35;4.45;;;0.70;;
27225;SDS011;14732;51.074;3.788;2024-01-15T10:55:02;7.55;;;1.50;;
27225;SDS011;14732;51.074;3.788;2024-01-15T10:57:32;3.10;;;1.08;;
27225;SDS011;14732;51.074;3.788;2024-01-15T10:59:57;4.93;;;1.10;;
27225;SDS011;14732;51.074;3.788;2024-01-15T11:02:24;2.50;;;0.63;;
27225;SDS011;14732;51.074;3.788;2024-01-15T11:04:51;11.98;;;1.73;;
27225;SDS011;14732;51.074;3.788;2024-01-15T11:07:16;7.22;;;0.93;;
27225;SDS011;14732;51.074;3.788;2024-01-15T11:09:43;6.63;;;1.00;;
27225;SDS011;14732;51.074;3.788;2024-01-15T11:12:12;6.93;;;1.38;;
27225;SDS011;14732;51.074;3.788;2024-01-15T11:14:39;7.22;;;1.50;;
27225;SDS011;14732;51.074;3.788;2024-01-15T11:17:15;8.50;;;1.13;;
27225;SDS011;14732;51.074;3.788;2024-01-15T11:19:43;3.90;;;0.82;;
27225;SDS011;14732;51.074;3.788;2024-01-15T11:22:09;11.35;;;1.52;;
27225;SDS011;14732;51.074;3.788;2024-01-15T11:24:40;12.65;;;1.30;;
27225;SDS011;14732;51.074;3.788;2024-01-15T11:27:06;7.05;;;1.00;;
27225;SDS011;14732;51.074;3.788;2024-01-15T11:29:33;6.80;;;1.08;;
27225;SDS011;14732;51.074;3.788;2024-01-15T11:37:56;5.07;;;1.00;;
27225;SDS011;14732;51.074;3.788;2024-01-15T11:40:36;4.63;;;0.60;;
27225;SDS011;14732;51.074;3.788;2024-01-15T11:43:03;6.65;;;1.20;;
27225;SDS011;14732;51.074;3.788;2024-01-15T11:45:34;9.18;;;1.20;;
27225;SDS011;14732;51.074;3.788;2024-01-15T11:50:40;7.43;;;1.30;;
27225;SDS011;14732;51.074;3.788;2024-01-15T11:56:01;7.20;;;1.10;;
27225;SDS011;14732;51.074;3.788;2024-01-15T11:58:28;15.48;;;1.77;;
27225;SDS011;14732;51.074;3.788;2024-01-15T12:00:55;6.63;;;1.25;;
27225;SDS011;14732;51.074;3.788;2024-01-15T12:03:21;5.63;;;1.15;;
27225;SDS011;14732;51.074;3.788;2024-01-15T12:05:47;4.70;;;0.93;;
27225;SDS011;14732;51.074;3.788;2024-01-15T12:08:13;10.38;;;1.20;;
27225;SDS011;14732;51.074;3.788;2024-01-15T12:10:39;2.10;;;0.63;;
27225;SDS011;14732;51.074;3.788;2024-01-15T12:13:15;6.38;;;1.15;;
27225;SDS011;14732;51.074;3.788;2024-01-15T12:15:42;7.90;;;1.30;;
27225;SDS011;14732;51.074;3.788;2024-01-15T12:18:10;12.55;;;1.50;;
27225;SDS011;14732;51.074;3.788;2024-01-15T12:20:40;4.05;;;1.00;;
27225;SDS011;14732;51.074;3.788;2024-01-15T12:23:07;3.88;;;0.77;;
27225;SDS011;14732;51.074;3.788;2024-01-15T12:25:33;9.05;;;1.38;;
27225;SDS011;14732;51.074;3.788;2024-01-15T12:27:59;5.10;;;1.08;;
27225;SDS011;14732;51.074;3.788;2024-01-15T12:30:26;6.30;;;0.85;;
27225;SDS011;14732;51.074;3.788;2024-01-15T12:32:54;5.32;;;1.20;;
27225;SDS011;14732;51.074;3.788;2024-01-15T12:35:20;9.95;;;1.10;;
27225;SDS011;14732;51.074;3.788;2024-01-15T12:37:47;10.35;;;1.45;;
27225;SDS011;14732;51.074;3.788;2024-01-15T12:40:13;7.70;;;1.20;;
27225;SDS011;14732;51.074;3.788;2024-01-15T12:42:43;9.43;;;1.58;;
27225;SDS011;14732;51.074;3.788;2024-01-15T12:45:09;4.22;;;1.20;;
27225;SDS011;14732;51.074;3.788;2024-01-15T12:47:36;5.72;;;1.27;;
27225;SDS011;14732;51.074;3.788;2024-01-15T12:50:05;8.43;;;1.20;;
27225;SDS011;14732;51.074;3.788;2024-01-15T12:52:35;9.80;;;1.60;;
27225;SDS011;14732;51.074;3.788;2024-01-15T12:55:03;11.75;;;1.35;;
27225;SDS011;14732;51.074;3.788;2024-01-15T12:57:29;6.55;;;1.15;;
27225;SDS011;14732;51.074;3.788;2024-01-15T12:59:55;13.85;;;1.70;;
27225;SDS011;14732;51.074;3.788;2024-01-15T13:02:21;8.75;;;1.30;;
27225;SDS011;14732;51.074;3.788;2024-01-15T13:04:47;8.15;;;1.20;;
27225;SDS011;14732;51.074;3.788;2024-01-15T13:07:13;8.55;;;1.20;;
27225;SDS011;14732;51.074;3.788;2024-01-15T13:09:39;8.25;;;1.27;;
27225;SDS011;14732;51.074;3.788;2024-01-15T13:12:05;8.23;;;1.70;;
27225;SDS011;14732;51.074;3.788;2024-01-15T13:14:31;4.88;;;1.10;;
27225;SDS011;14732;51.074;3.788;2024-01-15T13:16:58;5.60;;;1.00;;
27225;SDS011;14732;51.074;3.788;2024-01-15T13:19:24;5.90;;;1.40;;
27225;SDS011;14732;51.074;3.788;2024-01-15T13:21:50;4.60;;;0.93;;
27225;SDS011;14732;51.074;3.788;2024-01-15T13:24:16;3.95;;;0.95;;
27225;SDS011;14732;51.074;3.788;2024-01-15T13:26:43;9.15;;;1.33;;
27225;SDS011;14732;51.074;3.788;2024-01-15T13:29:10;6.20;;;1.02;;
27225;SDS011;14732;51.074;3.788;2024-01-15T13:31:38;7.15;;;0.98;;
27225;SDS011;14732;51.074;3.788;2024-01-15T13:34:04;11.35;;;1.17;;
27225;SDS011;14732;51.074;3.788;2024-01-15T13:36:30;5.68;;;1.25;;
27225;SDS011;14732;51.074;3.788;2024-01-15T13:38:57;6.50;;;1.35;;
27225;SDS011;14732;51.074;3.788;2024-01-15T13:41:23;5.68;;;1.02;;
27225;SDS011;14732;51.074;3.788;2024-01-15T13:43:53;7.97;;;1.58;;
27225;SDS011;14732;51.074;3.788;2024-01-15T13:46:28;16.73;;;1.70;;
27225;SDS011;14732;51.074;3.788;2024-01-15T13:48:58;7.40;;;1.42;;
27225;SDS011;14732;51.074;3.788;2024-01-15T13:51:24;7.53;;;1.58;;
27225;SDS011;14732;51.074;3.788;2024-01-15T13:53:50;3.40;;;0.93;;
27225;SDS011;14732;51.074;3.788;2024-01-15T13:56:16;9.60;;;1.42;;
27225;SDS011;14732;51.074;3.788;2024-01-15T13:58:42;4.00;;;0.77;;
27225;SDS011;14732;51.074;3.788;2024-01-15T14:01:08;10.27;;;1.95;;
27225;SDS011;14732;51.074;3.788;2024-01-15T14:03:34;6.97;;;1.00;;
27225;SDS011;14732;51.074;3.788;2024-01-15T14:06:00;6.13;;;1.15;;
27225;SDS011;14732;51.074;3.788;2024-01-15T14:08:28;3.83;;;0.82;;
27225;SDS011;14732;51.074;3.788;2024-01-15T14:10:53;5.80;;;1.10;;
27225;SDS011;14732;51.074;3.788;2024-01-15T14:13:21;3.33;;;1.00;;
27225;SDS011;14732;51.074;3.788;2024-01-15T14:15:47;3.60;;;0.93;;
27225;SDS011;14732;51.074;3.788;2024-01-15T14:18:14;5.35;;;1.15;;
27225;SDS011;14732;51.074;3.788;2024-01-15T14:20:41;5.68;;;1.30;;
27225;SDS011;14732;51.074;3.788;2024-01-15T14:23:07;4.28;;;1.80;;
27225;SDS011;14732;51.074;3.788;2024-01-15T14:25:33;8.65;;;2.65;;
27225;SDS011;14732;51.074;3.788;2024-01-15T14:27:59;10.98;;;5.13;;
27225;SDS011;14732;51.074;3.788;2024-01-15T14:30:25;6.68;;;2.67;;
27225;SDS011;14732;51.074;3.788;2024-01-15T14:32:50;7.30;;;2.15;;
27225;SDS011;14732;51.074;3.788;2024-01-15T14:35:16;7.38;;;2.22;;
27225;SDS011;14732;51.074;3.788;2024-01-15T14:37:42;8.15;;;1.30;;
27225;SDS011;14732;51.074;3.788;2024-01-15T14:40:08;4.60;;;1.40;;
27225;SDS011;14732;51.074;3.788;2024-01-15T14:42:35;6.43;;;1.42;;
27225;SDS011;14732;51.074;3.788;2024-01-15T14:45:01;5.57;;;1.00;;
27225;SDS011;14732;51.074;3.788;2024-01-15T14:47:36;9.48;;;1.58;;
27225;SDS011;14732;51.074;3.788;2024-01-15T14:50:06;5.80;;;1.50;;
27225;SDS011;14732;51.074;3.788;2024-01-15T14:52:32;8.48;;;1.55;;
27225;SDS011;14732;51.074;3.788;2024-01-15T14:54:58;3.05;;;0.88;;
27225;SDS011;14732;51.074;3.788;2024-01-15T14:57:24;7.93;;;1.90;;